sensor_id;sensor_type;location;lat;lon;timestamp;temperature;humidity
4354;DHT22;11018;51.258;6.806;2022-10-16T00:00:44;13.70;99.90
4354;DHT22;11018;51.258;6.806;2022-10-16T00:03:10;13.60;99.90
4354;DHT22;11018;51.258;6.806;2022-10-16T00:05:41;13.60;99.90
4354;DHT22;11018;51.258;6.806;2022-10-16T00:08:08;13.60;99.90
4354;DHT22;11018;51.258;6.806;2022-10-16T00:10:34;13.60;99.90
4354;DHT22;11018;51.258;6.806;2022-10-16T00:12:59;13.50;99.90
4354;DHT22;11018;51.258;6.806;2022-10-16T00:15:25;13.50;99.90
4354;DHT22;11018;51.258;6.806;2022-10-16T00:17:51;13.50;99.90
4354;DHT22;11018;51.258;6.806;2022-10-16T00:20:16;13.60;99.90
4354;DHT22;11018;51.258;6.806;2022-10-16T00:22:42;13.50;99.90
4354;DHT22;11018;51.258;6.806;2022-10-16T00:25:08;13.50;99.90
4354;DHT22;11018;51.258;6.806;2022-10-16T00:27:34;13.40;99.90
4354;DHT22;11018;51.258;6.806;2022-10-16T00:29:59;13.50;99.90
4354;DHT22;11018;51.258;6.806;2022-10-16T00:32:25;13.50;99.90
4354;DHT22;11018;51.258;6.806;2022-10-16T00:34:50;13.50;99.90
4354;DHT22;11018;51.258;6.806;2022-10-16T00:37:16;13.40;99.90
4354;DHT22;11018;51.258;6.806;2022-10-16T00:39:41;13.30;99.90
4354;DHT22;11018;51.258;6.806;2022-10-16T00:42:14;13.30;99.90
4354;DHT22;11018;51.258;6.806;2022-10-16T00:44:52;13.30;99.90
4354;DHT22;11018;51.258;6.806;2022-10-16T00:49:47;13.20;99.90
4354;DHT22;11018;51.258;6.806;2022-10-16T00:52:14;13.10;99.90
4354;DHT22;11018;51.258;6.806;2022-10-16T00:54:40;13.10;99.90
4354;DHT22;11018;51.258;6.806;2022-10-16T00:57:06;13.10;99.90
4354;DHT22;11018;51.258;6.806;2022-10-16T00:59:35;13.20;99.90
4354;DHT22;11018;51.258;6.806;2022-10-16T01:02:02;13.10;99.90
4354;DHT22;11018;51.258;6.806;2022-10-16T01:04:31;13.10;99.90
4354;DHT22;11018;51.258;6.806;2022-10-16T01:07:30;13.00;99.90
4354;DHT22;11018;51.258;6.806;2022-10-16T01:12:47;13.00;99.90
4354;DHT22;11018;51.258;6.806;2022-10-16T01:15:47;13.00;99.90
4354;DHT22;11018;51.258;6.806;2022-10-16T01:18:38;13.00;99.90
4354;DHT22;11018;51.258;6.806;2022-10-16T01:21:28;12.90;99.90
4354;DHT22;11018;51.258;6.806;2022-10-16T01:24:07;12.90;99.90
4354;DHT22;11018;51.258;6.806;2022-10-16T01:29:38;12.80;99.90
4354;DHT22;11018;51.258;6.806;2022-10-16T01:32:20;12.80;99.90
4354;DHT22;11018;51.258;6.806;2022-10-16T01:35:10;12.80;99.90
4354;DHT22;11018;51.258;6.806;2022-10-16T01:37:51;12.90;99.90
4354;DHT22;11018;51.258;6.806;2022-10-16T01:40:19;12.90;99.90
4354;DHT22;11018;51.258;6.806;2022-10-16T01:42:52;13.10;99.90
4354;DHT22;11018;51.258;6.806;2022-10-16T01:45:21;13.20;99.90
4354;DHT22;11018;51.258;6.806;2022-10-16T01:47:48;13.20;99.90
4354;DHT22;11018;51.258;6.806;2022-10-16T01:50:16;13.30;99.90
4354;DHT22;11018;51.258;6.806;2022-10-16T01:52:45;13.30;99.90
4354;DHT22;11018;51.258;6.806;2022-10-16T01:55:14;13.30;99.90
4354;DHT22;11018;51.258;6.806;2022-10-16T01:57:44;13.40;99.90
4354;DHT22;11018;51.258;6.806;2022-10-16T02:00:13;13.50;99.90
4354;DHT22;11018;51.258;6.806;2022-10-16T02:02:45;13.50;99.90
4354;DHT22;11018;51.258;6.806;2022-10-16T02:05:18;13.50;99.90
4354;DHT22;11018;51.258;6.806;2022-10-16T02:07:45;13.40;99.90
4354;DHT22;11018;51.258;6.806;2022-10-16T02:10:11;13.40;99.90
4354;DHT22;11018;51.258;6.806;2022-10-16T02:12:39;13.30;99.90
4354;DHT22;11018;51.258;6.806;2022-10-16T02:15:06;13.20;99.90
4354;DHT22;11018;51.258;6.806;2022-10-16T02:17:32;13.20;99.90
4354;DHT22;11018;51.258;6.806;2022-10-16T02:19:59;13.20;99.90
4354;DHT22;11018;51.258;6.806;2022-10-16T02:22:34;13.30;99.90
4354;DHT22;11018;51.258;6.806;2022-10-16T02:25:08;13.40;99.90
4354;DHT22;11018;51.258;6.806;2022-10-16T02:27:55;13.40;99.90
4354;DHT22;11018;51.258;6.806;2022-10-16T02:31:18;13.40;99.90
4354;DHT22;11018;51.258;6.806;2022-10-16T02:33:37;13.50;99.90
4354;DHT22;11018;51.258;6.806;2022-10-16T02:36:04;13.50;99.90
4354;DHT22;11018;51.258;6.806;2022-10-16T02:38:30;13.60;99.90
4354;DHT22;11018;51.258;6.806;2022-10-16T02:40:56;13.70;99.90
4354;DHT22;11018;51.258;6.806;2022-10-16T02:43:21;13.80;99.90
4354;DHT22;11018;51.258;6.806;2022-10-16T02:45:47;13.80;99.90
4354;DHT22;11018;51.258;6.806;2022-10-16T02:48:13;13.90;99.90
4354;DHT22;11018;51.258;6.806;2022-10-16T02:50:38;13.90;99.90
4354;DHT22;11018;51.258;6.806;2022-10-16T02:53:04;13.90;99.90
4354;DHT22;11018;51.258;6.806;2022-10-16T02:55:29;14.00;99.90
4354;DHT22;11018;51.258;6.806;2022-10-16T02:57:55;14.00;99.90
4354;DHT22;11018;51.258;6.806;2022-10-16T03:00:20;14.10;99.90
4354;DHT22;11018;51.258;6.806;2022-10-16T03:02:46;14.00;99.90
4354;DHT22;11018;51.258;6.806;2022-10-16T03:05:12;14.00;99.90
4354;DHT22;11018;51.258;6.806;2022-10-16T03:07:38;13.90;99.90
4354;DHT22;11018;51.258;6.806;2022-10-16T03:10:04;13.80;99.90
4354;DHT22;11018;51.258;6.806;2022-10-16T03:12:30;13.90;99.90
4354;DHT22;11018;51.258;6.806;2022-10-16T03:14:56;13.80;99.90
4354;DHT22;11018;51.258;6.806;2022-10-16T03:17:22;13.80;99.90
4354;DHT22;11018;51.258;6.806;2022-10-16T03:19:48;13.70;99.90
4354;DHT22;11018;51.258;6.806;2022-10-16T03:22:13;13.70;99.90
4354;DHT22;11018;51.258;6.806;2022-10-16T03:24:39;13.70;99.90
4354;DHT22;11018;51.258;6.806;2022-10-16T03:27:04;13.80;99.90
4354;DHT22;11018;51.258;6.806;2022-10-16T03:29:30;13.70;99.90
4354;DHT22;11018;51.258;6.806;2022-10-16T03:31:57;13.50;99.90
4354;DHT22;11018;51.258;6.806;2022-10-16T03:34:22;13.50;99.90
4354;DHT22;11018;51.258;6.806;2022-10-16T03:36:48;13.50;99.90
4354;DHT22;11018;51.258;6.806;2022-10-16T03:39:14;13.50;99.90
4354;DHT22;11018;51.258;6.806;2022-10-16T03:41:39;13.60;99.90
4354;DHT22;11018;51.258;6.806;2022-10-16T03:44:05;13.50;99.90
4354;DHT22;11018;51.258;6.806;2022-10-16T03:46:31;13.50;99.90
4354;DHT22;11018;51.258;6.806;2022-10-16T03:48:56;13.40;99.90
4354;DHT22;11018;51.258;6.806;2022-10-16T03:51:22;13.30;99.90
4354;DHT22;11018;51.258;6.806;2022-10-16T03:53:47;13.30;99.90
4354;DHT22;11018;51.258;6.806;2022-10-16T03:56:13;13.30;99.90
4354;DHT22;11018;51.258;6.806;2022-10-16T03:58:38;13.20;99.90
4354;DHT22;11018;51.258;6.806;2022-10-16T04:01:04;13.10;99.90
4354;DHT22;11018;51.258;6.806;2022-10-16T04:03:30;13.00;99.90
4354;DHT22;11018;51.258;6.806;2022-10-16T04:05:55;13.00;99.90
4354;DHT22;11018;51.258;6.806;2022-10-16T04:08:21;12.80;99.90
4354;DHT22;11018;51.258;6.806;2022-10-16T04:10:46;12.90;99.90
4354;DHT22;11018;51.258;6.806;2022-10-16T04:13:12;12.80;99.90
4354;DHT22;11018;51.258;6.806;2022-10-16T04:15:38;12.70;99.90
4354;DHT22;11018;51.258;6.806;2022-10-16T04:18:04;12.70;99.90
4354;DHT22;11018;51.258;6.806;2022-10-16T04:20:29;12.80;99.90
4354;DHT22;11018;51.258;6.806;2022-10-16T04:22:55;12.80;99.90
4354;DHT22;11018;51.258;6.806;2022-10-16T04:25:21;12.90;99.90
4354;DHT22;11018;51.258;6.806;2022-10-16T04:27:47;12.90;99.90
4354;DHT22;11018;51.258;6.806;2022-10-16T04:30:13;12.90;99.90
4354;DHT22;11018;51.258;6.806;2022-10-16T04:32:38;13.00;99.90
4354;DHT22;11018;51.258;6.806;2022-10-16T04:35:04;12.90;99.90
4354;DHT22;11018;51.258;6.806;2022-10-16T04:37:30;12.80;99.90
4354;DHT22;11018;51.258;6.806;2022-10-16T04:39:55;12.70;99.90
4354;DHT22;11018;51.258;6.806;2022-10-16T04:42:21;12.70;99.90
4354;DHT22;11018;51.258;6.806;2022-10-16T04:44:47;12.90;99.90
4354;DHT22;11018;51.258;6.806;2022-10-16T04:47:13;12.80;99.90
4354;DHT22;11018;51.258;6.806;2022-10-16T04:49:38;12.80;99.90
4354;DHT22;11018;51.258;6.806;2022-10-16T04:52:04;12.70;99.90
4354;DHT22;11018;51.258;6.806;2022-10-16T04:54:30;12.80;99.90
4354;DHT22;11018;51.258;6.806;2022-10-16T04:56:55;12.80;99.90
4354;DHT22;11018;51.258;6.806;2022-10-16T04:59:21;12.70;99.90
4354;DHT22;11018;51.258;6.806;2022-10-16T05:01:47;12.90;99.90
4354;DHT22;11018;51.258;6.806;2022-10-16T05:04:13;12.90;99.90
4354;DHT22;11018;51.258;6.806;2022-10-16T05:06:40;12.80;99.90
4354;DHT22;11018;51.258;6.806;2022-10-16T05:09:06;12.90;99.90
4354;DHT22;11018;51.258;6.806;2022-10-16T05:11:32;13.00;99.90
4354;DHT22;11018;51.258;6.806;2022-10-16T05:13:58;12.80;99.90
4354;DHT22;11018;51.258;6.806;2022-10-16T05:16:23;12.70;99.90
4354;DHT22;11018;51.258;6.806;2022-10-16T05:18:49;12.70;99.90
4354;DHT22;11018;51.258;6.806;2022-10-16T05:21:14;12.70;99.90
4354;DHT22;11018;51.258;6.806;2022-10-16T05:23:40;12.70;99.90
4354;DHT22;11018;51.258;6.806;2022-10-16T05:26:06;12.60;99.90
4354;DHT22;11018;51.258;6.806;2022-10-16T05:28:31;12.70;99.90
4354;DHT22;11018;51.258;6.806;2022-10-16T05:30:57;12.60;99.90
4354;DHT22;11018;51.258;6.806;2022-10-16T05:33:25;12.70;99.90
4354;DHT22;11018;51.258;6.806;2022-10-16T05:35:51;12.60;99.90
4354;DHT22;11018;51.258;6.806;2022-10-16T05:38:17;12.60;99.90
4354;DHT22;11018;51.258;6.806;2022-10-16T05:40:43;12.60;99.90
4354;DHT22;11018;51.258;6.806;2022-10-16T05:43:09;12.60;99.90
4354;DHT22;11018;51.258;6.806;2022-10-16T05:45:34;12.70;99.90
4354;DHT22;11018;51.258;6.806;2022-10-16T05:48:00;12.60;99.90
4354;DHT22;11018;51.258;6.806;2022-10-16T05:50:26;12.80;99.90
4354;DHT22;11018;51.258;6.806;2022-10-16T05:52:52;12.80;99.90
4354;DHT22;11018;51.258;6.806;2022-10-16T05:55:17;12.90;99.90
4354;DHT22;11018;51.258;6.806;2022-10-16T05:57:43;12.80;99.90
4354;DHT22;11018;51.258;6.806;2022-10-16T06:00:10;12.90;99.90
4354;DHT22;11018;51.258;6.806;2022-10-16T06:02:36;12.90;99.90
4354;DHT22;11018;51.258;6.806;2022-10-16T06:05:01;12.80;99.90
4354;DHT22;11018;51.258;6.806;2022-10-16T06:07:27;12.90;99.90
4354;DHT22;11018;51.258;6.806;2022-10-16T06:09:52;12.90;99.90
4354;DHT22;11018;51.258;6.806;2022-10-16T06:12:18;12.90;99.90
4354;DHT22;11018;51.258;6.806;2022-10-16T06:14:45;12.90;99.90
4354;DHT22;11018;51.258;6.806;2022-10-16T06:17:13;12.90;99.90
4354;DHT22;11018;51.258;6.806;2022-10-16T06:19:39;12.90;99.90
4354;DHT22;11018;51.258;6.806;2022-10-16T06:22:04;13.00;99.90
4354;DHT22;11018;51.258;6.806;2022-10-16T06:24:30;13.10;99.90
4354;DHT22;11018;51.258;6.806;2022-10-16T06:26:55;13.10;99.90
4354;DHT22;11018;51.258;6.806;2022-10-16T06:29:21;13.30;99.90
4354;DHT22;11018;51.258;6.806;2022-10-16T06:31:46;13.20;99.90
4354;DHT22;11018;51.258;6.806;2022-10-16T06:34:12;13.20;99.90
4354;DHT22;11018;51.258;6.806;2022-10-16T06:36:38;13.10;99.90
4354;DHT22;11018;51.258;6.806;2022-10-16T06:39:04;13.20;99.90
4354;DHT22;11018;51.258;6.806;2022-10-16T06:41:32;13.20;99.90
4354;DHT22;11018;51.258;6.806;2022-10-16T06:43:58;13.30;99.90
4354;DHT22;11018;51.258;6.806;2022-10-16T06:46:25;13.40;99.90
4354;DHT22;11018;51.258;6.806;2022-10-16T06:48:52;13.50;99.90
4354;DHT22;11018;51.258;6.806;2022-10-16T06:51:19;13.40;99.90
4354;DHT22;11018;51.258;6.806;2022-10-16T06:53:47;13.50;99.90
4354;DHT22;11018;51.258;6.806;2022-10-16T06:56:20;13.50;99.90
4354;DHT22;11018;51.258;6.806;2022-10-16T06:58:46;13.70;99.90
4354;DHT22;11018;51.258;6.806;2022-10-16T07:01:13;13.70;99.90
4354;DHT22;11018;51.258;6.806;2022-10-16T07:03:40;13.70;99.90
4354;DHT22;11018;51.258;6.806;2022-10-16T07:06:07;13.70;99.90
4354;DHT22;11018;51.258;6.806;2022-10-16T07:08:35;13.60;99.90
4354;DHT22;11018;51.258;6.806;2022-10-16T07:11:03;13.50;99.90
4354;DHT22;11018;51.258;6.806;2022-10-16T07:13:29;13.50;99.90
4354;DHT22;11018;51.258;6.806;2022-10-16T07:15:54;13.50;99.90
4354;DHT22;11018;51.258;6.806;2022-10-16T07:18:20;13.50;99.90
4354;DHT22;11018;51.258;6.806;2022-10-16T07:20:46;13.50;99.90
4354;DHT22;11018;51.258;6.806;2022-10-16T07:23:11;13.60;99.90
4354;DHT22;11018;51.258;6.806;2022-10-16T07:25:37;13.60;99.90
4354;DHT22;11018;51.258;6.806;2022-10-16T07:28:02;13.80;99.90
4354;DHT22;11018;51.258;6.806;2022-10-16T07:30:28;13.70;99.90
4354;DHT22;11018;51.258;6.806;2022-10-16T07:32:53;13.70;99.90
4354;DHT22;11018;51.258;6.806;2022-10-16T07:35:19;13.60;99.90
4354;DHT22;11018;51.258;6.806;2022-10-16T07:37:45;13.50;99.90
4354;DHT22;11018;51.258;6.806;2022-10-16T07:40:11;13.70;99.90
4354;DHT22;11018;51.258;6.806;2022-10-16T07:42:37;13.70;99.90
4354;DHT22;11018;51.258;6.806;2022-10-16T07:45:02;13.70;99.90
4354;DHT22;11018;51.258;6.806;2022-10-16T07:47:28;13.80;99.90
4354;DHT22;11018;51.258;6.806;2022-10-16T07:49:54;13.90;99.90
4354;DHT22;11018;51.258;6.806;2022-10-16T07:52:19;14.00;99.90
4354;DHT22;11018;51.258;6.806;2022-10-16T07:54:45;14.20;99.90
4354;DHT22;11018;51.258;6.806;2022-10-16T07:57:10;14.30;99.90
4354;DHT22;11018;51.258;6.806;2022-10-16T07:59:36;14.50;99.90
4354;DHT22;11018;51.258;6.806;2022-10-16T08:02:02;14.60;99.90
4354;DHT22;11018;51.258;6.806;2022-10-16T08:04:27;14.70;99.10
4354;DHT22;11018;51.258;6.806;2022-10-16T08:06:53;14.80;98.20
4354;DHT22;11018;51.258;6.806;2022-10-16T08:09:19;15.00;92.80
4354;DHT22;11018;51.258;6.806;2022-10-16T08:11:45;15.20;88.20
4354;DHT22;11018;51.258;6.806;2022-10-16T08:14:11;15.30;84.40
4354;DHT22;11018;51.258;6.806;2022-10-16T08:16:36;15.30;85.30
4354;DHT22;11018;51.258;6.806;2022-10-16T08:19:02;15.30;83.20
4354;DHT22;11018;51.258;6.806;2022-10-16T08:21:27;15.40;81.30
4354;DHT22;11018;51.258;6.806;2022-10-16T08:23:53;15.60;77.50
4354;DHT22;11018;51.258;6.806;2022-10-16T08:26:20;15.70;76.90
4354;DHT22;11018;51.258;6.806;2022-10-16T08:28:48;15.70;76.50
4354;DHT22;11018;51.258;6.806;2022-10-16T08:31:15;15.90;73.00
4354;DHT22;11018;51.258;6.806;2022-10-16T08:33:43;16.00;68.80
4354;DHT22;11018;51.258;6.806;2022-10-16T08:36:10;15.90;70.00
4354;DHT22;11018;51.258;6.806;2022-10-16T08:38:36;16.00;70.20
4354;DHT22;11018;51.258;6.806;2022-10-16T08:49:22;16.40;65.40
4354;DHT22;11018;51.258;6.806;2022-10-16T08:51:50;16.50;64.10
4354;DHT22;11018;51.258;6.806;2022-10-16T08:54:33;16.70;62.80
4354;DHT22;11018;51.258;6.806;2022-10-16T08:57:14;16.60;63.00
4354;DHT22;11018;51.258;6.806;2022-10-16T08:59:42;16.60;61.90
4354;DHT22;11018;51.258;6.806;2022-10-16T09:16:04;17.20;53.80
4354;DHT22;11018;51.258;6.806;2022-10-16T09:18:43;17.20;53.70
4354;DHT22;11018;51.258;6.806;2022-10-16T09:21:26;17.30;49.50
4354;DHT22;11018;51.258;6.806;2022-10-16T09:23:57;17.30;51.50
4354;DHT22;11018;51.258;6.806;2022-10-16T09:26:23;17.40;51.50
4354;DHT22;11018;51.258;6.806;2022-10-16T09:28:52;17.40;49.20
4354;DHT22;11018;51.258;6.806;2022-10-16T09:31:19;17.50;50.30
4354;DHT22;11018;51.258;6.806;2022-10-16T09:33:50;17.50;48.30
4354;DHT22;11018;51.258;6.806;2022-10-16T09:36:17;17.50;46.80
4354;DHT22;11018;51.258;6.806;2022-10-16T09:38:43;17.50;48.70
4354;DHT22;11018;51.258;6.806;2022-10-16T09:43:46;17.60;46.20
4354;DHT22;11018;51.258;6.806;2022-10-16T09:46:32;17.60;47.20
4354;DHT22;11018;51.258;6.806;2022-10-16T09:49:00;17.70;46.20
4354;DHT22;11018;51.258;6.806;2022-10-16T09:51:32;17.70;46.00
4354;DHT22;11018;51.258;6.806;2022-10-16T09:54:00;17.70;45.20
4354;DHT22;11018;51.258;6.806;2022-10-16T09:56:34;17.80;45.40
4354;DHT22;11018;51.258;6.806;2022-10-16T09:59:10;17.90;45.10
4354;DHT22;11018;51.258;6.806;2022-10-16T10:01:38;17.90;44.20
4354;DHT22;11018;51.258;6.806;2022-10-16T10:04:05;17.90;44.80
4354;DHT22;11018;51.258;6.806;2022-10-16T10:06:36;18.00;43.80
4354;DHT22;11018;51.258;6.806;2022-10-16T10:11:57;18.00;43.40
4354;DHT22;11018;51.258;6.806;2022-10-16T10:14:41;18.00;44.20
4354;DHT22;11018;51.258;6.806;2022-10-16T10:19:51;18.20;41.80
4354;DHT22;11018;51.258;6.806;2022-10-16T10:24:55;17.90;42.70
4354;DHT22;11018;51.258;6.806;2022-10-16T10:27:25;17.80;44.10
4354;DHT22;11018;51.258;6.806;2022-10-16T10:30:17;17.70;44.30
4354;DHT22;11018;51.258;6.806;2022-10-16T10:35:45;17.80;41.50
4354;DHT22;11018;51.258;6.806;2022-10-16T10:38:40;17.80;41.50
4354;DHT22;11018;51.258;6.806;2022-10-16T10:46:17;17.90;41.10
4354;DHT22;11018;51.258;6.806;2022-10-16T10:48:54;17.80;40.80
4354;DHT22;11018;51.258;6.806;2022-10-16T10:51:36;17.70;42.70
4354;DHT22;11018;51.258;6.806;2022-10-16T10:57:02;17.80;40.70
4354;DHT22;11018;51.258;6.806;2022-10-16T11:05:30;17.90;39.90
4354;DHT22;11018;51.258;6.806;2022-10-16T11:08:18;18.00;39.70
4354;DHT22;11018;51.258;6.806;2022-10-16T11:10:52;18.10;40.20
4354;DHT22;11018;51.258;6.806;2022-10-16T11:13:38;18.30;38.10
4354;DHT22;11018;51.258;6.806;2022-10-16T11:21:56;18.50;35.70
4354;DHT22;11018;51.258;6.806;2022-10-16T11:25:21;18.50;35.30
4354;DHT22;11018;51.258;6.806;2022-10-16T11:27:38;18.60;35.50
4354;DHT22;11018;51.258;6.806;2022-10-16T11:30:16;18.70;35.00
4354;DHT22;11018;51.258;6.806;2022-10-16T11:38:13;18.80;35.40
4354;DHT22;11018;51.258;6.806;2022-10-16T11:40:41;18.80;34.90
4354;DHT22;11018;51.258;6.806;2022-10-16T11:43:21;19.00;34.70
4354;DHT22;11018;51.258;6.806;2022-10-16T11:45:54;19.00;33.60
4354;DHT22;11018;51.258;6.806;2022-10-16T11:48:38;19.10;32.80
4354;DHT22;11018;51.258;6.806;2022-10-16T11:51:29;19.10;31.40
4354;DHT22;11018;51.258;6.806;2022-10-16T11:54:22;19.10;31.90
4354;DHT22;11018;51.258;6.806;2022-10-16T11:56:53;19.10;33.30
4354;DHT22;11018;51.258;6.806;2022-10-16T11:59:38;19.00;32.00
4354;DHT22;11018;51.258;6.806;2022-10-16T12:08:13;18.90;31.60
4354;DHT22;11018;51.258;6.806;2022-10-16T12:10:39;19.10;30.50
4354;DHT22;11018;51.258;6.806;2022-10-16T12:16:19;19.10;31.20
4354;DHT22;11018;51.258;6.806;2022-10-16T12:18:46;19.20;31.10
4354;DHT22;11018;51.258;6.806;2022-10-16T12:21:14;19.30;30.30
4354;DHT22;11018;51.258;6.806;2022-10-16T12:24:02;19.40;30.30
4354;DHT22;11018;51.258;6.806;2022-10-16T12:26:31;19.60;29.90
4354;DHT22;11018;51.258;6.806;2022-10-16T12:29:53;19.90;29.00
4354;DHT22;11018;51.258;6.806;2022-10-16T12:32:00;20.20;28.40
4354;DHT22;11018;51.258;6.806;2022-10-16T12:34:41;20.50;27.30
4354;DHT22;11018;51.258;6.806;2022-10-16T12:37:10;20.60;26.70
4354;DHT22;11018;51.258;6.806;2022-10-16T12:39:37;20.60;27.30
4354;DHT22;11018;51.258;6.806;2022-10-16T12:42:05;20.60;27.00
4354;DHT22;11018;51.258;6.806;2022-10-16T12:44:35;20.70;26.10
4354;DHT22;11018;51.258;6.806;2022-10-16T12:47:02;20.80;26.80
4354;DHT22;11018;51.258;6.806;2022-10-16T12:51:53;21.00;25.60
4354;DHT22;11018;51.258;6.806;2022-10-16T12:54:39;21.00;26.30
4354;DHT22;11018;51.258;6.806;2022-10-16T12:57:29;21.00;26.00
4354;DHT22;11018;51.258;6.806;2022-10-16T13:00:54;20.70;25.80
4354;DHT22;11018;51.258;6.806;2022-10-16T13:03:08;20.50;26.90
4354;DHT22;11018;51.258;6.806;2022-10-16T13:06:08;20.40;27.00
4354;DHT22;11018;51.258;6.806;2022-10-16T13:17:00;20.90;27.30
4354;DHT22;11018;51.258;6.806;2022-10-16T13:19:36;21.00;25.80
4354;DHT22;11018;51.258;6.806;2022-10-16T13:22:24;21.10;25.90
4354;DHT22;11018;51.258;6.806;2022-10-16T13:30:25;21.40;24.70
4354;DHT22;11018;51.258;6.806;2022-10-16T13:35:30;21.60;24.60
4354;DHT22;11018;51.258;6.806;2022-10-16T13:38:13;21.70;25.40
4354;DHT22;11018;51.258;6.806;2022-10-16T13:41:15;21.70;24.20
4354;DHT22;11018;51.258;6.806;2022-10-16T13:43:47;21.80;24.00
4354;DHT22;11018;51.258;6.806;2022-10-16T13:46:19;22.30;23.00
4354;DHT22;11018;51.258;6.806;2022-10-16T13:48:56;22.70;20.30
4354;DHT22;11018;51.258;6.806;2022-10-16T13:51:22;22.70;19.40
4354;DHT22;11018;51.258;6.806;2022-10-16T13:53:48;22.50;19.90
4354;DHT22;11018;51.258;6.806;2022-10-16T13:56:21;22.50;19.70
4354;DHT22;11018;51.258;6.806;2022-10-16T13:59:02;23.10;19.40
4354;DHT22;11018;51.258;6.806;2022-10-16T14:01:30;23.90;18.80
4354;DHT22;11018;51.258;6.806;2022-10-16T14:04:04;24.10;17.30
4354;DHT22;11018;51.258;6.806;2022-10-16T14:06:31;23.70;17.80
4354;DHT22;11018;51.258;6.806;2022-10-16T14:09:06;23.20;18.90
4354;DHT22;11018;51.258;6.806;2022-10-16T14:11:33;22.70;19.40
4354;DHT22;11018;51.258;6.806;2022-10-16T14:14:02;22.10;20.60
4354;DHT22;11018;51.258;6.806;2022-10-16T14:16:30;21.70;21.80
4354;DHT22;11018;51.258;6.806;2022-10-16T14:19:02;21.30;23.30
4354;DHT22;11018;51.258;6.806;2022-10-16T14:21:28;21.10;24.30
4354;DHT22;11018;51.258;6.806;2022-10-16T14:23:55;21.10;24.20
4354;DHT22;11018;51.258;6.806;2022-10-16T14:26:24;21.10;25.00
4354;DHT22;11018;51.258;6.806;2022-10-16T14:29:10;21.00;25.60
4354;DHT22;11018;51.258;6.806;2022-10-16T14:31:36;21.30;25.90
4354;DHT22;11018;51.258;6.806;2022-10-16T14:34:02;21.60;25.40
4354;DHT22;11018;51.258;6.806;2022-10-16T14:36:29;21.80;26.80
4354;DHT22;11018;51.258;6.806;2022-10-16T14:39:04;21.70;26.70
4354;DHT22;11018;51.258;6.806;2022-10-16T14:41:31;21.40;26.70
4354;DHT22;11018;51.258;6.806;2022-10-16T14:44:03;21.20;27.20
4354;DHT22;11018;51.258;6.806;2022-10-16T14:46:35;21.00;27.80
4354;DHT22;11018;51.258;6.806;2022-10-16T14:51:38;20.60;27.70
4354;DHT22;11018;51.258;6.806;2022-10-16T14:54:04;20.50;28.20
4354;DHT22;11018;51.258;6.806;2022-10-16T14:56:43;20.40;28.70
4354;DHT22;11018;51.258;6.806;2022-10-16T14:59:22;20.30;28.70
4354;DHT22;11018;51.258;6.806;2022-10-16T15:01:49;20.20;28.80
4354;DHT22;11018;51.258;6.806;2022-10-16T15:04:15;20.20;29.70
4354;DHT22;11018;51.258;6.806;2022-10-16T15:06:41;20.10;29.80
4354;DHT22;11018;51.258;6.806;2022-10-16T15:09:07;19.90;30.70
4354;DHT22;11018;51.258;6.806;2022-10-16T15:11:33;20.00;30.80
4354;DHT22;11018;51.258;6.806;2022-10-16T15:13:58;19.80;30.60
4354;DHT22;11018;51.258;6.806;2022-10-16T15:16:24;19.70;31.60
4354;DHT22;11018;51.258;6.806;2022-10-16T15:18:50;19.70;32.00
4354;DHT22;11018;51.258;6.806;2022-10-16T15:21:28;19.70;32.00
4354;DHT22;11018;51.258;6.806;2022-10-16T15:23:54;19.60;32.60
4354;DHT22;11018;51.258;6.806;2022-10-16T15:26:22;19.50;32.20
4354;DHT22;11018;51.258;6.806;2022-10-16T15:28:48;19.60;32.10
4354;DHT22;11018;51.258;6.806;2022-10-16T15:31:13;19.60;34.90
4354;DHT22;11018;51.258;6.806;2022-10-16T15:33:39;19.50;37.70
4354;DHT22;11018;51.258;6.806;2022-10-16T15:36:05;19.30;44.90
4354;DHT22;11018;51.258;6.806;2022-10-16T15:38:30;19.10;48.30
4354;DHT22;11018;51.258;6.806;2022-10-16T15:40:56;18.90;50.00
4354;DHT22;11018;51.258;6.806;2022-10-16T15:43:22;19.00;51.00
4354;DHT22;11018;51.258;6.806;2022-10-16T15:46:02;19.00;51.80
4354;DHT22;11018;51.258;6.806;2022-10-16T15:48:29;18.80;52.90
4354;DHT22;11018;51.258;6.806;2022-10-16T15:50:55;18.70;53.20
4354;DHT22;11018;51.258;6.806;2022-10-16T15:53:20;18.80;53.80
4354;DHT22;11018;51.258;6.806;2022-10-16T15:55:46;18.60;56.30
4354;DHT22;11018;51.258;6.806;2022-10-16T15:58:11;18.40;59.20
4354;DHT22;11018;51.258;6.806;2022-10-16T16:00:37;18.20;60.80
4354;DHT22;11018;51.258;6.806;2022-10-16T16:03:03;18.20;61.40
4354;DHT22;11018;51.258;6.806;2022-10-16T16:05:29;18.10;61.10
4354;DHT22;11018;51.258;6.806;2022-10-16T16:07:55;18.30;62.00
4354;DHT22;11018;51.258;6.806;2022-10-16T16:10:20;18.50;59.80
4354;DHT22;11018;51.258;6.806;2022-10-16T16:12:47;18.20;60.70
4354;DHT22;11018;51.258;6.806;2022-10-16T16:15:21;18.10;61.20
4354;DHT22;11018;51.258;6.806;2022-10-16T16:17:47;18.00;60.80
4354;DHT22;11018;51.258;6.806;2022-10-16T16:20:12;18.10;58.70
4354;DHT22;11018;51.258;6.806;2022-10-16T16:22:38;18.00;59.70
4354;DHT22;11018;51.258;6.806;2022-10-16T16:25:04;17.90;61.10
4354;DHT22;11018;51.258;6.806;2022-10-16T16:27:30;17.70;63.60
4354;DHT22;11018;51.258;6.806;2022-10-16T16:29:59;17.80;63.20
4354;DHT22;11018;51.258;6.806;2022-10-16T16:32:24;17.90;59.90
4354;DHT22;11018;51.258;6.806;2022-10-16T16:34:50;17.70;60.30
4354;DHT22;11018;51.258;6.806;2022-10-16T16:37:16;17.60;61.20
4354;DHT22;11018;51.258;6.806;2022-10-16T16:39:42;17.60;60.30
4354;DHT22;11018;51.258;6.806;2022-10-16T16:42:08;17.60;60.00
4354;DHT22;11018;51.258;6.806;2022-10-16T16:44:35;17.60;61.10
4354;DHT22;11018;51.258;6.806;2022-10-16T16:47:02;17.40;62.70
4354;DHT22;11018;51.258;6.806;2022-10-16T16:49:28;17.30;63.60
4354;DHT22;11018;51.258;6.806;2022-10-16T16:52:01;17.40;63.00
4354;DHT22;11018;51.258;6.806;2022-10-16T16:54:27;17.30;62.80
4354;DHT22;11018;51.258;6.806;2022-10-16T16:56:52;17.30;62.80
4354;DHT22;11018;51.258;6.806;2022-10-16T16:59:19;17.50;60.30
4354;DHT22;11018;51.258;6.806;2022-10-16T17:01:47;17.60;59.60
4354;DHT22;11018;51.258;6.806;2022-10-16T17:04:13;17.50;59.00
4354;DHT22;11018;51.258;6.806;2022-10-16T17:06:41;17.40;60.10
4354;DHT22;11018;51.258;6.806;2022-10-16T17:09:07;17.30;61.90
4354;DHT22;11018;51.258;6.806;2022-10-16T17:11:33;17.30;61.80
4354;DHT22;11018;51.258;6.806;2022-10-16T17:14:00;17.20;62.80
4354;DHT22;11018;51.258;6.806;2022-10-16T17:16:32;17.00;65.50
4354;DHT22;11018;51.258;6.806;2022-10-16T17:19:00;16.90;67.70
4354;DHT22;11018;51.258;6.806;2022-10-16T17:21:26;16.80;69.50
4354;DHT22;11018;51.258;6.806;2022-10-16T17:23:55;16.70;71.60
4354;DHT22;11018;51.258;6.806;2022-10-16T17:26:20;16.70;72.40
4354;DHT22;11018;51.258;6.806;2022-10-16T17:28:51;16.60;73.80
4354;DHT22;11018;51.258;6.806;2022-10-16T17:31:19;16.60;74.50
4354;DHT22;11018;51.258;6.806;2022-10-16T17:33:45;16.70;74.40
4354;DHT22;11018;51.258;6.806;2022-10-16T17:36:11;16.80;72.90
4354;DHT22;11018;51.258;6.806;2022-10-16T17:38:39;16.80;73.60